createdAt,value
2019-05-22T00:01:21.676Z,23.83
2019-05-22T00:04:07.029Z,27.33
2019-05-22T00:06:39.293Z,27.80
2019-05-22T00:09:10.836Z,26.00
2019-05-22T00:11:38.973Z,28.57
2019-05-22T00:14:06.862Z,24.37
2019-05-22T00:16:36.821Z,30.80
2019-05-22T00:19:05.026Z,25.70
2019-05-22T00:21:34.511Z,28.47
2019-05-22T00:24:05.379Z,29.20
2019-05-22T00:26:32.759Z,27.17
2019-05-22T00:29:00.906Z,26.17
2019-05-22T00:31:29.224Z,29.03
2019-05-22T00:33:57.684Z,25.43
2019-05-22T00:36:25.862Z,27.20
2019-05-22T00:38:54.055Z,29.77
2019-05-22T00:41:23.624Z,30.07
2019-05-22T00:43:52.728Z,33.57
2019-05-22T00:46:20.809Z,28.33
2019-05-22T00:48:48.285Z,31.03
2019-05-22T00:51:34.202Z,30.87
2019-05-22T00:54:37.958Z,35.43
2019-05-22T00:57:16.983Z,40.47
2019-05-22T00:59:45.558Z,33.43
2019-05-22T01:02:16.191Z,32.13
2019-05-22T01:04:45.974Z,32.17
2019-05-22T01:07:16.987Z,30.37
2019-05-22T01:09:46.681Z,28.80
2019-05-22T01:12:21.303Z,35.60
2019-05-22T01:14:49.766Z,31.47
2019-05-22T01:17:19.500Z,34.03
2019-05-22T01:19:48.849Z,32.80
2019-05-22T01:22:17.080Z,34.63
2019-05-22T01:24:46.244Z,34.13
2019-05-22T01:27:14.872Z,35.10
2019-05-22T01:29:45.160Z,30.33
2019-05-22T01:32:20.063Z,32.73
2019-05-22T01:34:47.991Z,35.77
2019-05-22T01:37:17.713Z,38.20
2019-05-22T01:40:16.759Z,35.70
2019-05-22T01:42:47.621Z,37.37
2019-05-22T01:45:17.763Z,34.90
2019-05-22T01:47:52.949Z,35.40
2019-05-22T01:50:40.401Z,39.03
2019-05-22T01:53:07.882Z,37.37
2019-05-22T01:55:35.427Z,36.93
2019-05-22T01:58:03.850Z,35.10
2019-05-22T02:00:33.016Z,36.83
2019-05-22T02:03:02.218Z,37.10
2019-05-22T02:05:30.461Z,38.13
2019-05-22T02:07:58.365Z,39.63
2019-05-22T02:10:31.605Z,36.17
2019-05-22T02:13:02.665Z,35.10
2019-05-22T02:15:31.959Z,34.37
2019-05-22T02:18:01.952Z,35.17
2019-05-22T02:20:31.120Z,33.97
2019-05-22T02:22:59.185Z,36.83
2019-05-22T02:25:28.295Z,36.97
2019-05-22T02:27:56.305Z,39.03
2019-05-22T02:30:26.433Z,37.00
2019-05-22T02:32:54.975Z,35.57
2019-05-22T02:35:23.131Z,36.87
2019-05-22T02:37:52.410Z,45.63
2019-05-22T02:40:27.932Z,37.53
2019-05-22T02:42:56.163Z,36.23
2019-05-22T02:45:23.832Z,36.33
2019-05-22T02:47:52.856Z,37.30
2019-05-22T02:50:20.229Z,38.37
2019-05-22T02:52:47.686Z,37.37
2019-05-22T02:55:15.885Z,36.63
2019-05-22T02:57:43.937Z,32.80
2019-05-22T03:00:11.962Z,32.47
2019-05-22T03:02:47.421Z,31.60
2019-05-22T03:05:15.788Z,35.30
2019-05-22T03:07:44.932Z,31.37
2019-05-22T03:10:15.218Z,35.37
2019-05-22T03:12:43.399Z,33.93
2019-05-22T03:15:14.273Z,32.67
2019-05-22T03:17:44.821Z,30.63
2019-05-22T03:20:17.895Z,32.30
2019-05-22T03:23:16.059Z,30.53
2019-05-22T03:25:43.997Z,32.63
2019-05-22T03:28:12.160Z,31.60
2019-05-22T03:30:41.997Z,32.53
2019-05-22T03:33:09.514Z,34.97
2019-05-22T03:35:48.564Z,37.13
2019-05-22T03:38:17.641Z,35.07
2019-05-22T03:40:46.585Z,35.60
2019-05-22T03:43:18.193Z,33.97
2019-05-22T03:45:45.756Z,35.93
2019-05-22T03:48:13.597Z,36.07
2019-05-22T03:50:41.104Z,37.30
2019-05-22T03:53:16.105Z,35.50
2019-05-22T03:55:44.691Z,33.53
2019-05-22T03:58:12.310Z,35.37
2019-05-22T04:00:43.613Z,35.53
2019-05-22T04:03:10.682Z,32.70
2019-05-22T04:05:38.334Z,33.30
2019-05-22T04:08:08.549Z,33.80
2019-05-22T04:10:48.365Z,36.90
2019-05-22T04:13:16.609Z,38.03
2019-05-22T04:15:44.930Z,35.07
2019-05-22T04:18:12.462Z,38.87
2019-05-22T04:20:39.898Z,38.30
2019-05-22T04:23:08.404Z,39.97
2019-05-22T04:25:35.888Z,34.93
2019-05-22T04:28:05.270Z,35.33
2019-05-22T04:30:33.574Z,36.33
2019-05-22T04:33:01.773Z,37.73
2019-05-22T04:35:29.718Z,36.43
2019-05-22T04:37:58.074Z,39.77
2019-05-22T04:40:54.728Z,38.27
2019-05-22T04:43:24.280Z,37.47
2019-05-22T04:45:53.454Z,35.43
2019-05-22T04:48:22.034Z,44.03
2019-05-22T04:50:51.757Z,39.20
2019-05-22T04:53:19.630Z,34.40
2019-05-22T04:55:47.469Z,35.37
2019-05-22T04:58:17.054Z,35.40
2019-05-22T05:00:45.678Z,40.03
2019-05-22T05:03:14.938Z,33.40
2019-05-22T05:05:45.163Z,35.67
2019-05-22T05:08:15.611Z,37.53
2019-05-22T05:10:46.309Z,36.30
2019-05-22T05:13:14.376Z,35.63
2019-05-22T05:15:41.759Z,39.27
2019-05-22T05:18:09.565Z,39.00
2019-05-22T05:20:37.477Z,38.40
2019-05-22T05:23:04.717Z,36.23
2019-05-22T05:25:32.918Z,37.17
2019-05-22T05:28:02.382Z,34.23
2019-05-22T05:30:29.844Z,33.27
2019-05-22T05:32:57.809Z,33.63
2019-05-22T05:35:26.457Z,34.23
2019-05-22T05:37:54.163Z,33.27
2019-05-22T05:40:28.028Z,38.73
2019-05-22T05:42:56.132Z,37.47
2019-05-22T05:45:25.283Z,38.13
2019-05-22T05:47:52.492Z,31.03
2019-05-22T05:50:21.396Z,31.37
2019-05-22T05:52:50.842Z,31.17
2019-05-22T05:55:21.055Z,30.03
2019-05-22T05:58:32.173Z,33.07
2019-05-22T06:01:14.629Z,27.77
2019-05-22T06:03:44.195Z,28.80
2019-05-22T06:06:50.120Z,29.13
2019-05-22T06:09:19.416Z,29.63
2019-05-22T06:11:51.588Z,30.67
2019-05-22T06:14:23.349Z,31.77
2019-05-22T06:17:39.757Z,29.83
2019-05-22T06:20:09.192Z,27.60
2019-05-22T06:22:37.299Z,29.23
2019-05-22T06:25:07.921Z,31.23
2019-05-22T06:27:51.714Z,32.70
2019-05-22T06:30:37.963Z,31.47
2019-05-22T06:33:43.172Z,30.33
2019-05-22T06:36:16.905Z,26.47
2019-05-22T06:38:49.845Z,30.70
2019-05-22T06:41:18.355Z,29.57
2019-05-22T06:44:27.778Z,28.20
2019-05-22T06:46:55.606Z,26.67
2019-05-22T06:49:38.349Z,28.60
2019-05-22T06:52:06.883Z,28.07
2019-05-22T06:54:34.571Z,33.90
2019-05-22T06:57:01.918Z,25.67
2019-05-22T06:59:29.738Z,24.37
2019-05-22T07:02:01.424Z,24.50
2019-05-22T07:04:30.034Z,23.27
2019-05-22T07:06:58.035Z,24.73
2019-05-22T07:09:25.715Z,22.57
2019-05-22T07:11:54.195Z,26.87
2019-05-22T07:14:22.557Z,23.87
2019-05-22T07:16:49.837Z,22.27
2019-05-22T07:19:18.735Z,22.63
2019-05-22T07:21:47.463Z,22.13
2019-05-22T07:24:14.883Z,23.13
2019-05-22T07:26:42.559Z,20.87
2019-05-22T07:29:10.428Z,20.63
2019-05-22T07:31:38.065Z,22.00
2019-05-22T07:34:06.930Z,25.37
2019-05-22T07:36:34.328Z,27.73
2019-05-22T07:39:01.684Z,24.60
2019-05-22T07:41:30.323Z,23.13
2019-05-22T07:43:57.637Z,22.37
2019-05-22T07:46:24.951Z,21.50
2019-05-22T07:48:53.241Z,24.97
2019-05-22T07:51:21.262Z,25.00
2019-05-22T07:53:49.407Z,22.97
2019-05-22T07:56:17.605Z,24.97
2019-05-22T07:58:45.336Z,22.10
2019-05-22T08:01:14.534Z,22.87
2019-05-22T08:03:44.612Z,19.97
2019-05-22T08:06:11.970Z,21.40
2019-05-22T08:08:41.821Z,21.73
2019-05-22T08:11:09.860Z,20.73
2019-05-22T08:13:37.493Z,19.63
2019-05-22T08:16:05.611Z,22.23
2019-05-22T08:18:35.954Z,22.40
2019-05-22T08:21:04.030Z,23.57
2019-05-22T08:23:33.274Z,21.63
2019-05-22T08:26:00.784Z,17.67
2019-05-22T08:28:30.362Z,18.13
2019-05-22T08:30:59.046Z,21.70
2019-05-22T08:33:27.201Z,20.57
2019-05-22T08:35:55.449Z,17.53
2019-05-22T08:38:29.052Z,21.73
2019-05-22T08:40:59.135Z,20.83
2019-05-22T08:43:26.942Z,18.10
2019-05-22T08:45:54.398Z,18.67
2019-05-22T08:48:23.591Z,19.87
2019-05-22T08:50:52.287Z,20.07
2019-05-22T08:53:20.417Z,19.97
2019-05-22T08:55:48.589Z,22.30
2019-05-22T08:58:17.860Z,17.87
2019-05-22T09:00:46.775Z,16.70
2019-05-22T09:03:15.062Z,21.77
2019-05-22T09:05:43.034Z,20.47
2019-05-22T09:08:10.493Z,17.00
2019-05-22T09:10:37.930Z,16.00
2019-05-22T09:13:05.533Z,20.13
2019-05-22T09:15:34.290Z,17.20
2019-05-22T09:18:02.024Z,16.60
2019-05-22T09:20:29.943Z,20.63
2019-05-22T09:22:57.701Z,17.23
2019-05-22T09:25:25.520Z,14.97
2019-05-22T09:27:53.100Z,17.00
2019-05-22T09:30:20.495Z,12.33
2019-05-22T09:32:48.305Z,13.80
2019-05-22T09:35:15.809Z,11.30
2019-05-22T09:37:43.177Z,14.80
2019-05-22T09:40:11.100Z,16.50
2019-05-22T09:42:38.835Z,13.87
2019-05-22T09:45:07.701Z,15.53
2019-05-22T09:47:36.851Z,13.03
2019-05-22T09:50:05.531Z,14.13
2019-05-22T09:52:33.667Z,11.10
2019-05-22T09:55:01.322Z,11.73
2019-05-22T09:57:29.915Z,11.80
2019-05-22T09:59:57.306Z,13.70
2019-05-22T10:02:26.791Z,15.00
2019-05-22T10:04:54.289Z,16.47
2019-05-22T10:07:22.008Z,15.83
2019-05-22T10:09:49.446Z,14.53
2019-05-22T10:12:16.841Z,13.40
2019-05-22T10:14:44.685Z,12.37
2019-05-22T10:17:12.329Z,14.77
2019-05-22T10:19:40.040Z,11.30
2019-05-22T10:22:09.834Z,12.67
2019-05-22T10:24:37.681Z,16.00
2019-05-22T10:27:08.028Z,11.73
2019-05-22T10:29:35.642Z,12.97
2019-05-22T10:32:03.989Z,10.13
2019-05-22T10:34:31.578Z,13.00
2019-05-22T10:36:58.915Z,13.73
2019-05-22T10:39:27.305Z,10.70
2019-05-22T10:41:54.843Z,10.53
2019-05-22T10:44:22.502Z,10.67
2019-05-22T10:46:50.716Z,14.53
2019-05-22T10:49:18.878Z,9.70
2019-05-22T10:51:46.289Z,11.13
2019-05-22T10:54:14.201Z,11.07
2019-05-22T10:56:41.482Z,11.43
2019-05-22T10:59:08.854Z,9.63
2019-05-22T11:01:37.730Z,7.40
2019-05-22T11:04:06.739Z,8.10
2019-05-22T11:06:34.270Z,8.23
2019-05-22T11:09:01.717Z,11.43
2019-05-22T11:11:30.879Z,10.50
2019-05-22T11:14:01.847Z,10.23
2019-05-22T11:16:29.363Z,10.67
2019-05-22T11:18:57.428Z,10.40
2019-05-22T11:21:25.179Z,10.63
2019-05-22T11:23:53.451Z,8.53
2019-05-22T11:26:21.272Z,9.40
2019-05-22T11:28:48.789Z,7.80
2019-05-22T11:31:16.691Z,6.87
2019-05-22T11:33:44.812Z,6.57
2019-05-22T11:36:13.900Z,10.23
2019-05-22T11:38:41.536Z,8.37
2019-05-22T11:41:09.808Z,6.37
2019-05-22T11:43:38.365Z,10.57
2019-05-22T11:46:05.950Z,11.60
2019-05-22T11:48:33.369Z,6.47
2019-05-22T11:51:01.278Z,7.17
2019-05-22T11:53:29.183Z,6.77
2019-05-22T11:55:57.138Z,7.33
2019-05-22T11:58:24.913Z,8.37
2019-05-22T12:00:52.528Z,4.73
2019-05-22T12:03:21.316Z,7.13
2019-05-22T12:05:49.002Z,6.17
2019-05-22T12:08:16.641Z,5.10
2019-05-22T12:10:44.167Z,6.27
2019-05-22T12:13:12.523Z,10.83
2019-05-22T12:15:40.611Z,6.63
2019-05-22T12:18:09.773Z,8.13
2019-05-22T12:20:37.668Z,8.57
2019-05-22T12:23:05.271Z,5.97
2019-05-22T12:25:32.989Z,4.90
2019-05-22T12:28:01.154Z,6.83
2019-05-22T12:30:29.738Z,6.37
2019-05-22T12:32:58.616Z,5.33
2019-05-22T12:35:27.026Z,5.47
2019-05-22T12:37:56.603Z,6.53
2019-05-22T12:40:24.366Z,6.37
2019-05-22T12:42:52.136Z,10.80
2019-05-22T12:45:24.370Z,6.80
2019-05-22T12:47:52.917Z,8.73
2019-05-22T12:50:20.778Z,6.53
2019-05-22T12:52:48.964Z,4.87
2019-05-22T12:55:17.460Z,6.60
2019-05-22T12:57:45.048Z,7.73
2019-05-22T13:00:13.895Z,4.57
2019-05-22T13:02:43.052Z,6.20
2019-05-22T13:05:14.238Z,6.43
2019-05-22T13:07:40.507Z,3.53
2019-05-22T13:10:08.819Z,4.87
2019-05-22T13:12:37.074Z,6.23
2019-05-22T13:15:09.501Z,8.43
2019-05-22T13:17:35.578Z,4.70
2019-05-22T13:20:06.358Z,5.27
2019-05-22T13:22:35.807Z,4.57
2019-05-22T13:25:05.878Z,6.20
2019-05-22T13:27:35.130Z,4.20
2019-05-22T13:30:03.730Z,6.57
2019-05-22T13:32:34.722Z,4.83
2019-05-22T13:35:02.907Z,5.37
2019-05-22T13:37:30.425Z,5.23
2019-05-22T13:39:57.875Z,4.23
2019-05-22T13:42:25.534Z,5.50
2019-05-22T13:44:53.389Z,5.23
2019-05-22T13:47:21.775Z,7.40
2019-05-22T13:49:50.766Z,4.63
2019-05-22T13:52:18.343Z,5.60
2019-05-22T13:54:46.552Z,4.20
2019-05-22T13:57:14.243Z,5.07
2019-05-22T13:59:42.078Z,4.03
2019-05-22T14:02:10.368Z,3.77
2019-05-22T14:04:38.990Z,6.73
2019-05-22T14:07:06.544Z,4.33
2019-05-22T14:09:34.469Z,4.13
2019-05-22T14:12:02.082Z,4.27
2019-05-22T14:14:29.616Z,5.13
2019-05-22T14:16:57.606Z,5.13
2019-05-22T14:19:24.808Z,4.53
2019-05-22T14:21:52.389Z,6.47
2019-05-22T14:24:19.762Z,4.63
2019-05-22T14:26:47.250Z,5.50
2019-05-22T14:29:14.617Z,5.63
2019-05-22T14:31:42.329Z,3.70
2019-05-22T14:34:09.841Z,4.33
2019-05-22T14:36:37.458Z,3.07
2019-05-22T14:39:06.167Z,5.60
2019-05-22T14:41:33.544Z,3.50
2019-05-22T14:44:00.990Z,3.50
2019-05-22T14:46:29.358Z,3.60
2019-05-22T14:48:56.736Z,3.13
2019-05-22T14:51:24.722Z,2.80
2019-05-22T14:53:54.940Z,4.47
2019-05-22T14:56:23.122Z,4.27
2019-05-22T14:58:52.253Z,2.83
2019-05-22T15:01:20.264Z,3.47
2019-05-22T15:03:47.699Z,2.40
2019-05-22T15:06:15.197Z,3.33
2019-05-22T15:08:42.543Z,3.23
2019-05-22T15:11:10.071Z,5.00
2019-05-22T15:13:37.719Z,2.97
2019-05-22T15:16:05.868Z,2.97
2019-05-22T15:18:33.395Z,2.23
2019-05-22T15:21:01.699Z,2.97
2019-05-22T15:23:30.541Z,3.03
2019-05-22T15:25:59.311Z,2.60
2019-05-22T15:28:27.247Z,3.87
2019-05-22T15:30:56.298Z,4.33
2019-05-22T15:33:24.300Z,3.83
2019-05-22T15:35:53.439Z,4.63
2019-05-22T15:38:21.259Z,5.50
2019-05-22T15:40:49.310Z,6.40
2019-05-22T15:43:17.074Z,4.60
2019-05-22T15:45:46.086Z,5.03
2019-05-22T15:48:21.654Z,4.03
2019-05-22T15:50:53.108Z,4.83
2019-05-22T15:53:23.036Z,4.87
2019-05-22T15:55:50.559Z,6.90
2019-05-22T15:58:18.710Z,4.63
2019-05-22T16:00:47.306Z,4.30
2019-05-22T16:03:17.798Z,6.53
2019-05-22T16:05:45.944Z,3.90
2019-05-22T16:08:15.096Z,4.00
2019-05-22T16:10:45.894Z,4.50
2019-05-22T16:13:15.658Z,4.83
2019-05-22T16:15:46.236Z,4.00
2019-05-22T16:18:16.310Z,7.63
2019-05-22T16:20:44.118Z,7.07
2019-05-22T16:23:11.866Z,5.80
2019-05-22T16:25:40.424Z,4.90
2019-05-22T16:28:08.637Z,4.33
2019-05-22T16:30:36.503Z,5.67
2019-05-22T16:33:06.078Z,4.87
2019-05-22T16:35:33.665Z,5.53
2019-05-22T16:38:01.061Z,4.87
2019-05-22T16:40:29.146Z,4.57
2019-05-22T16:42:58.893Z,5.43
2019-05-22T16:45:27.633Z,6.90
2019-05-22T16:47:55.162Z,5.70
2019-05-22T16:50:24.351Z,5.60
2019-05-22T16:52:53.405Z,6.73
2019-05-22T16:55:22.808Z,5.20
2019-05-22T16:57:50.662Z,5.83
2019-05-22T17:00:19.165Z,6.80
2019-05-22T17:02:48.735Z,6.20
2019-05-22T17:05:19.031Z,5.33
2019-05-22T17:07:47.290Z,5.40
2019-05-22T17:10:15.681Z,5.57
2019-05-22T17:12:43.070Z,5.57
2019-05-22T17:15:14.574Z,3.67
2019-05-22T17:17:43.255Z,4.60
2019-05-22T17:20:12.537Z,4.87
2019-05-22T17:22:40.520Z,3.87
2019-05-22T17:25:08.211Z,9.53
2019-05-22T17:27:36.074Z,4.37
2019-05-22T17:30:04.857Z,3.97
2019-05-22T17:32:33.207Z,10.20
2019-05-22T17:35:01.221Z,3.93
2019-05-22T17:37:30.534Z,5.30
2019-05-22T17:39:58.516Z,3.40
2019-05-22T17:42:26.604Z,3.40
2019-05-22T17:44:54.778Z,3.87
2019-05-22T17:47:24.195Z,3.70
2019-05-22T17:49:52.833Z,4.33
2019-05-22T17:52:22.722Z,3.33
2019-05-22T17:54:51.988Z,4.20
2019-05-22T17:57:20.836Z,6.53
2019-05-22T17:59:48.054Z,4.53
2019-05-22T18:02:17.168Z,4.00
2019-05-22T18:04:44.817Z,4.50
2019-05-22T18:07:12.903Z,4.53
2019-05-22T18:09:41.381Z,3.73
2019-05-22T18:12:09.126Z,4.83
2019-05-22T18:14:36.613Z,5.07
2019-05-22T18:17:05.881Z,3.77
2019-05-22T18:19:33.496Z,5.40
2019-05-22T18:22:01.370Z,5.23
2019-05-22T18:24:29.207Z,6.07
2019-05-22T18:26:56.826Z,4.97
2019-05-22T18:29:24.211Z,4.90
2019-05-22T18:31:51.673Z,4.93
2019-05-22T18:34:19.084Z,5.13
2019-05-22T18:36:46.470Z,5.70
2019-05-22T18:39:15.876Z,4.87
2019-05-22T18:41:43.389Z,6.37
2019-05-22T18:44:11.039Z,5.70
2019-05-22T18:46:38.886Z,5.03
2019-05-22T18:49:06.533Z,6.23
2019-05-22T18:51:33.961Z,5.13
2019-05-22T18:54:01.355Z,6.47
2019-05-22T18:56:29.383Z,8.70
2019-05-22T18:58:57.047Z,5.33
2019-05-22T19:01:24.989Z,7.00
2019-05-22T19:03:53.083Z,5.90
2019-05-22T19:06:30.437Z,8.37
2019-05-22T19:08:50.533Z,6.07
2019-05-22T19:11:18.026Z,6.80
2019-05-22T19:13:45.454Z,5.23
2019-05-22T19:16:13.481Z,7.53
2019-05-22T19:18:41.050Z,8.33
2019-05-22T19:21:08.778Z,6.90
2019-05-22T19:23:36.484Z,6.63
2019-05-22T19:26:05.882Z,7.30
2019-05-22T19:28:43.659Z,9.13
2019-05-22T19:31:03.981Z,10.70
2019-05-22T19:33:31.584Z,8.77
2019-05-22T19:35:59.042Z,10.90
2019-05-22T19:38:26.640Z,10.70
2019-05-22T19:40:53.921Z,8.43
2019-05-22T19:43:22.094Z,8.10
2019-05-22T19:45:50.110Z,9.57
2019-05-22T19:48:18.220Z,7.77
2019-05-22T19:50:46.173Z,8.87
2019-05-22T19:53:18.581Z,8.40
2019-05-22T19:55:44.814Z,8.93
2019-05-22T19:58:12.271Z,15.07
2019-05-22T20:00:39.982Z,11.40
2019-05-22T20:03:08.358Z,8.70
2019-05-22T20:05:36.146Z,10.77
2019-05-22T20:08:05.146Z,11.87
2019-05-22T20:10:32.646Z,9.97
2019-05-22T20:13:02.047Z,10.50
2019-05-22T20:15:30.059Z,15.20
2019-05-22T20:17:58.865Z,10.20
2019-05-22T20:20:26.728Z,10.80
2019-05-22T20:22:54.486Z,12.77
2019-05-22T20:25:22.342Z,12.37
2019-05-22T20:27:50.747Z,15.90
2019-05-22T20:30:21.852Z,11.53
2019-05-22T20:32:49.350Z,14.97
2019-05-22T20:35:17.397Z,12.93
2019-05-22T20:37:47.016Z,11.47
2019-05-22T20:40:18.655Z,12.83
2019-05-22T20:42:46.679Z,17.90
2019-05-22T20:45:16.522Z,13.90
2019-05-22T20:47:45.325Z,12.10
2019-05-22T20:50:15.059Z,10.13
2019-05-22T20:52:44.539Z,11.93
2019-05-22T20:55:12.171Z,11.90
2019-05-22T20:57:41.445Z,10.37
2019-05-22T21:00:10.753Z,13.40
2019-05-22T21:02:40.006Z,11.67
2019-05-22T21:05:08.812Z,8.50
2019-05-22T21:07:42.087Z,10.83
2019-05-22T21:10:10.472Z,11.03
2019-05-22T21:12:38.530Z,10.00
2019-05-22T21:15:06.624Z,12.43
2019-05-22T21:17:36.946Z,10.90
2019-05-22T21:20:06.787Z,10.73
2019-05-22T21:22:34.319Z,21.27
2019-05-22T21:25:02.275Z,10.93
2019-05-22T21:27:29.855Z,10.00
2019-05-22T21:29:57.765Z,11.27
2019-05-22T21:32:27.807Z,9.43
2019-05-22T21:34:55.199Z,11.77
2019-05-22T21:37:24.141Z,10.20
2019-05-22T21:39:52.285Z,13.27
2019-05-22T21:42:20.218Z,9.73
2019-05-22T21:44:48.358Z,10.33
2019-05-22T21:47:18.078Z,9.33
2019-05-22T21:49:46.029Z,9.07
2019-05-22T21:52:15.004Z,10.47
2019-05-22T21:54:42.735Z,11.67
2019-05-22T21:57:10.900Z,11.97
2019-05-22T21:59:38.641Z,11.87
2019-05-22T22:02:13.731Z,10.03
2019-05-22T22:04:41.935Z,10.23
2019-05-22T22:07:10.445Z,11.63
2019-05-22T22:09:39.508Z,13.07
2019-05-22T22:12:07.772Z,12.13
2019-05-22T22:14:36.387Z,10.53
2019-05-22T22:17:04.734Z,12.90
2019-05-22T22:19:33.308Z,13.17
2019-05-22T22:22:01.967Z,14.20
2019-05-22T22:24:29.471Z,10.53
2019-05-22T22:26:57.878Z,12.63
2019-05-22T22:29:25.215Z,15.60
2019-05-22T22:31:54.583Z,12.77
2019-05-22T22:34:32.382Z,14.10
2019-05-22T22:37:01.902Z,10.83
2019-05-22T22:39:31.873Z,9.73
2019-05-22T22:42:00.099Z,13.57
2019-05-22T22:44:28.378Z,13.83
2019-05-22T22:47:02.735Z,14.07
2019-05-22T22:49:31.743Z,11.73
2019-05-22T22:52:00.310Z,12.57
2019-05-22T22:54:28.425Z,12.63
2019-05-22T22:56:55.990Z,10.73
2019-05-22T22:59:23.407Z,11.33
2019-05-22T23:01:55.123Z,15.27
2019-05-22T23:04:25.930Z,14.30
2019-05-22T23:06:56.101Z,12.77
2019-05-22T23:09:24.664Z,14.70
2019-05-22T23:11:54.544Z,15.13
2019-05-22T23:14:22.495Z,14.90
2019-05-22T23:16:50.226Z,14.60
2019-05-22T23:19:37.428Z,12.80
2019-05-22T23:22:05.163Z,11.77
2019-05-22T23:24:35.062Z,12.87
2019-05-22T23:27:02.893Z,15.17
2019-05-22T23:29:32.110Z,14.23
2019-05-22T23:32:00.019Z,13.63
2019-05-22T23:34:27.704Z,13.37
2019-05-22T23:36:57.565Z,15.73
2019-05-22T23:39:25.853Z,14.80
2019-05-22T23:41:56.640Z,14.00
2019-05-22T23:44:24.510Z,16.23
2019-05-22T23:46:52.807Z,13.30
2019-05-22T23:49:20.531Z,18.27
2019-05-22T23:51:49.014Z,16.10
2019-05-22T23:54:17.711Z,16.47
2019-05-22T23:56:45.831Z,16.80
2019-05-22T23:59:16.073Z,15.20
